createdAt,value
2023-05-06T00:01:53.098Z,9.82
2023-05-06T00:04:19.586Z,6.65
2023-05-06T00:06:46.078Z,8.48
2023-05-06T00:09:12.596Z,8.70
2023-05-06T00:11:39.027Z,7.70
2023-05-06T00:14:05.956Z,9.60
2023-05-06T00:16:32.497Z,11.48
2023-05-06T00:18:58.993Z,7.80
2023-05-06T00:21:27.121Z,10.68
2023-05-06T00:23:53.564Z,7.55
2023-05-06T00:26:20.009Z,9.63
2023-05-06T00:28:46.433Z,12.00
2023-05-06T00:31:12.958Z,6.15
2023-05-06T00:33:39.524Z,10.20
2023-05-06T00:36:06.283Z,11.90
2023-05-06T00:38:33.041Z,7.30
2023-05-06T00:40:59.515Z,9.20
2023-05-06T00:43:25.994Z,12.60
2023-05-06T00:45:52.519Z,10.07
2023-05-06T00:48:19.068Z,10.63
2023-05-06T00:50:45.772Z,9.35
2023-05-06T00:53:12.571Z,9.90
2023-05-06T00:55:39.915Z,8.52
2023-05-06T00:58:06.489Z,10.00
2023-05-06T01:00:32.962Z,11.07
2023-05-06T01:02:59.575Z,9.00
2023-05-06T01:05:30.001Z,11.32
2023-05-06T01:08:08.683Z,12.15
2023-05-06T01:10:50.105Z,9.68
2023-05-06T01:13:28.704Z,10.90
2023-05-06T01:15:57.021Z,10.30
2023-05-06T01:18:25.954Z,8.98
2023-05-06T01:20:54.292Z,12.75
2023-05-06T01:23:20.987Z,9.13
2023-05-06T01:25:47.453Z,9.30
2023-05-06T01:28:14.042Z,9.32
2023-05-06T01:30:52.965Z,11.10
2023-05-06T01:33:28.373Z,10.55
2023-05-06T01:36:07.160Z,8.90
2023-05-06T01:38:43.375Z,11.88
2023-05-06T01:41:17.407Z,11.05
2023-05-06T01:43:45.303Z,9.48
2023-05-06T01:46:15.928Z,10.80
2023-05-06T01:51:08.973Z,8.57
2023-05-06T01:53:35.461Z,10.15
2023-05-06T01:56:01.929Z,10.75
2023-05-06T01:58:28.404Z,11.57
2023-05-06T02:00:54.872Z,11.02
2023-05-06T02:03:21.481Z,12.60
2023-05-06T02:05:48.505Z,10.38
2023-05-06T02:08:15.220Z,11.52
2023-05-06T02:10:41.763Z,11.50
2023-05-06T02:13:10.087Z,10.50
2023-05-06T02:15:36.518Z,11.20
2023-05-06T02:18:02.993Z,10.20
2023-05-06T02:20:29.502Z,12.48
2023-05-06T02:22:56.266Z,14.77
2023-05-06T02:25:23.001Z,11.43
2023-05-06T02:27:49.564Z,12.18
2023-05-06T02:30:16.027Z,9.23
2023-05-06T02:32:42.529Z,9.48
2023-05-06T02:35:09.947Z,8.50
2023-05-06T02:37:36.721Z,13.32
2023-05-06T02:40:03.225Z,11.75
2023-05-06T02:42:29.668Z,8.88
2023-05-06T02:44:56.153Z,10.80
2023-05-06T02:47:22.676Z,8.30
2023-05-06T02:49:49.246Z,9.75
2023-05-06T02:52:15.672Z,9.57
2023-05-06T02:54:42.119Z,11.90
2023-05-06T02:57:08.528Z,11.73
2023-05-06T02:59:35.501Z,9.73
2023-05-06T03:02:01.880Z,10.35
2023-05-06T03:04:28.424Z,10.30
2023-05-06T03:06:54.970Z,14.50
2023-05-06T03:09:21.637Z,10.10
2023-05-06T03:11:48.401Z,9.70
2023-05-06T03:14:15.034Z,11.40
2023-05-06T03:16:41.559Z,9.98
2023-05-06T03:19:08.036Z,9.40
2023-05-06T03:21:34.472Z,12.35
2023-05-06T03:24:00.967Z,11.15
2023-05-06T03:26:27.424Z,15.57
2023-05-06T03:28:54.426Z,10.98
2023-05-06T03:31:20.992Z,10.90
2023-05-06T03:33:47.539Z,13.95
2023-05-06T03:36:16.784Z,11.98
2023-05-06T03:38:43.271Z,8.68
2023-05-06T03:41:09.840Z,9.75
2023-05-06T03:43:37.363Z,10.77
2023-05-06T03:46:03.998Z,11.27
2023-05-06T03:48:31.320Z,13.57
2023-05-06T03:50:58.040Z,9.68
2023-05-06T03:53:25.761Z,10.52
2023-05-06T03:55:52.213Z,10.82
2023-05-06T03:58:18.709Z,9.50
2023-05-06T04:00:45.659Z,9.27
2023-05-06T04:03:12.245Z,8.00
2023-05-06T04:05:38.814Z,11.10
2023-05-06T04:08:05.521Z,8.13
2023-05-06T04:10:32.370Z,10.82
2023-05-06T04:12:58.997Z,10.80
2023-05-06T04:15:25.537Z,13.13
2023-05-06T04:17:52.060Z,10.23
2023-05-06T04:20:18.477Z,10.95
2023-05-06T04:22:44.894Z,11.65
2023-05-06T04:25:12.075Z,11.38
2023-05-06T04:27:38.772Z,10.27
2023-05-06T04:30:05.841Z,8.30
2023-05-06T04:32:34.133Z,9.82
2023-05-06T04:35:00.686Z,9.50
2023-05-06T04:37:28.324Z,10.75
2023-05-06T04:39:55.849Z,12.07
2023-05-06T04:42:22.466Z,11.82
2023-05-06T04:44:49.150Z,10.85
2023-05-06T04:47:16.083Z,7.53
2023-05-06T04:49:42.545Z,9.93
2023-05-06T04:52:09.053Z,8.85
2023-05-06T04:54:35.706Z,14.20
2023-05-06T04:57:03.298Z,12.90
2023-05-06T04:59:29.801Z,9.50
2023-05-06T05:01:56.225Z,11.57
2023-05-06T05:04:22.678Z,9.80
2023-05-06T05:06:49.129Z,10.05
2023-05-06T05:09:15.629Z,9.52
2023-05-06T05:11:42.148Z,12.65
2023-05-06T05:14:08.630Z,10.50
2023-05-06T05:16:35.200Z,11.90
2023-05-06T05:19:03.515Z,10.82
2023-05-06T05:21:30.535Z,10.30
2023-05-06T05:23:57.018Z,11.40
2023-05-06T05:26:23.468Z,9.65
2023-05-06T05:28:49.901Z,10.02
2023-05-06T05:31:16.366Z,9.82
2023-05-06T05:33:42.844Z,8.82
2023-05-06T05:36:09.385Z,12.27
2023-05-06T05:38:35.866Z,10.60
2023-05-06T05:41:02.300Z,13.07
2023-05-06T05:43:28.772Z,10.10
2023-05-06T05:45:55.332Z,9.25
2023-05-06T05:48:21.775Z,8.48
2023-05-06T05:50:48.220Z,9.75
2023-05-06T05:53:14.678Z,10.50
2023-05-06T05:55:41.092Z,8.52
2023-05-06T05:58:07.536Z,8.88
2023-05-06T06:00:34.131Z,8.68
2023-05-06T06:03:01.038Z,9.27
2023-05-06T06:05:27.583Z,9.23
2023-05-06T06:07:54.039Z,9.27
2023-05-06T06:10:20.472Z,9.98
2023-05-06T06:12:46.892Z,7.72
2023-05-06T06:15:13.354Z,8.25
2023-05-06T06:17:39.840Z,9.27
2023-05-06T06:20:07.209Z,8.93
2023-05-06T06:22:33.674Z,10.05
2023-05-06T06:25:00.144Z,8.25
2023-05-06T06:27:26.631Z,12.35
2023-05-06T06:29:53.149Z,11.20
2023-05-06T06:32:19.940Z,10.45
2023-05-06T06:34:46.420Z,9.25
2023-05-06T06:37:13.103Z,11.52
2023-05-06T06:39:39.579Z,10.32
2023-05-06T06:42:06.976Z,8.00
2023-05-06T06:44:34.285Z,8.13
2023-05-06T06:47:00.852Z,8.52
2023-05-06T06:49:27.577Z,8.68
2023-05-06T06:51:54.295Z,8.40
2023-05-06T06:54:20.831Z,9.25
2023-05-06T06:56:47.253Z,10.02
2023-05-06T06:59:13.912Z,8.48
2023-05-06T07:01:43.232Z,8.70
2023-05-06T07:04:09.808Z,7.53
2023-05-06T07:06:36.350Z,9.20
2023-05-06T07:09:02.973Z,7.82
2023-05-06T07:11:29.486Z,9.93
2023-05-06T07:13:56.002Z,8.20
2023-05-06T07:16:22.511Z,8.95
2023-05-06T07:18:50.107Z,8.40
2023-05-06T07:21:16.617Z,7.60
2023-05-06T07:23:43.072Z,11.00
2023-05-06T07:26:09.574Z,10.65
2023-05-06T07:28:36.006Z,7.28
2023-05-06T07:31:02.502Z,11.38
2023-05-06T07:33:28.946Z,7.22
2023-05-06T07:35:55.486Z,10.73
2023-05-06T07:38:23.447Z,8.90
2023-05-06T07:40:51.149Z,6.13
2023-05-06T07:43:17.699Z,8.68
2023-05-06T07:45:44.144Z,8.60
2023-05-06T07:48:10.601Z,7.97
2023-05-06T07:50:37.109Z,10.38
2023-05-06T07:53:04.002Z,9.85
2023-05-06T07:55:32.705Z,9.35
2023-05-06T07:58:00.324Z,10.00
2023-05-06T08:00:27.190Z,8.88
2023-05-06T08:02:53.708Z,8.95
2023-05-06T08:05:20.315Z,11.15
2023-05-06T08:07:47.014Z,9.75
2023-05-06T08:10:13.472Z,9.18
2023-05-06T08:12:39.948Z,9.13
2023-05-06T08:15:07.046Z,10.20
2023-05-06T08:17:33.549Z,9.70
2023-05-06T08:20:00.192Z,8.70
2023-05-06T08:22:26.844Z,10.52
2023-05-06T08:24:54.629Z,10.77
2023-05-06T08:27:21.044Z,8.90
2023-05-06T08:29:47.461Z,9.55
2023-05-06T08:32:13.986Z,10.98
2023-05-06T08:34:40.415Z,8.80
2023-05-06T08:37:07.298Z,8.63
2023-05-06T08:39:33.770Z,9.60
2023-05-06T08:42:05.028Z,8.85
2023-05-06T08:44:31.969Z,9.60
2023-05-06T08:46:58.636Z,10.85
2023-05-06T08:49:25.175Z,9.07
2023-05-06T08:51:55.281Z,8.95
2023-05-06T08:54:25.380Z,10.73
2023-05-06T08:56:53.891Z,12.88
2023-05-06T08:59:24.213Z,9.77
2023-05-06T09:01:51.802Z,9.73
2023-05-06T09:04:19.332Z,10.45
2023-05-06T09:06:46.145Z,9.50
2023-05-06T09:09:14.800Z,10.60
2023-05-06T09:11:41.410Z,10.75
2023-05-06T09:14:15.715Z,11.15
2023-05-06T09:16:46.591Z,10.82
2023-05-06T09:19:14.094Z,9.05
2023-05-06T09:21:43.615Z,10.10
2023-05-06T09:24:11.726Z,10.35
2023-05-06T09:26:42.268Z,8.82
2023-05-06T09:29:09.447Z,11.05
2023-05-06T09:31:43.656Z,9.88
2023-05-06T09:34:11.158Z,10.95
2023-05-06T09:36:37.769Z,8.77
2023-05-06T09:39:05.272Z,13.27
2023-05-06T09:41:32.160Z,9.07
2023-05-06T09:43:59.364Z,9.73
2023-05-06T09:46:29.701Z,10.43
2023-05-06T09:48:57.331Z,11.43
2023-05-06T09:51:23.887Z,11.07
2023-05-06T09:53:51.315Z,12.00
2023-05-06T09:56:17.805Z,12.43
2023-05-06T09:58:46.091Z,10.98
2023-05-06T10:01:19.147Z,9.20
2023-05-06T10:03:49.255Z,10.38
2023-05-06T10:06:15.806Z,11.10
2023-05-06T10:08:45.122Z,9.20
2023-05-06T10:11:12.010Z,10.35
2023-05-06T10:13:38.986Z,9.23
2023-05-06T10:16:06.338Z,8.18
2023-05-06T10:18:34.688Z,9.77
2023-05-06T10:21:01.715Z,8.57
2023-05-06T10:23:45.001Z,10.27
2023-05-06T10:26:12.302Z,9.65
2023-05-06T10:28:42.989Z,10.13
2023-05-06T10:31:14.720Z,9.60
2023-05-06T10:33:43.221Z,8.73
2023-05-06T10:36:20.445Z,9.02
2023-05-06T10:38:52.398Z,8.88
2023-05-06T10:41:21.219Z,9.50
2023-05-06T10:43:49.237Z,9.30
2023-05-06T10:46:17.238Z,9.10
2023-05-06T10:49:16.245Z,8.65
2023-05-06T10:51:42.871Z,9.02
2023-05-06T10:54:18.365Z,9.45
2023-05-06T10:56:51.132Z,8.43
2023-05-06T10:59:21.607Z,8.25
2023-05-06T11:01:55.960Z,8.60
2023-05-06T11:04:22.673Z,8.43
2023-05-06T11:06:50.867Z,7.88
2023-05-06T11:09:25.208Z,11.23
2023-05-06T11:11:58.277Z,8.77
2023-05-06T11:14:27.201Z,10.20
2023-05-06T11:16:54.576Z,9.18
2023-05-06T11:19:23.550Z,9.10
2023-05-06T11:21:50.946Z,8.50
2023-05-06T11:24:40.071Z,7.78
2023-05-06T11:27:07.082Z,6.88
2023-05-06T11:29:33.647Z,7.55
2023-05-06T11:32:00.844Z,6.78
2023-05-06T11:34:31.689Z,10.15
2023-05-06T11:37:02.316Z,7.43
2023-05-06T11:39:30.825Z,6.80
2023-05-06T11:42:06.984Z,6.65
2023-05-06T11:44:35.545Z,5.43
2023-05-06T11:47:09.202Z,6.68
2023-05-06T11:49:45.517Z,6.53
2023-05-06T11:54:41.584Z,4.20
2023-05-06T11:57:08.867Z,4.97
2023-05-06T11:59:39.644Z,4.55
2023-05-06T12:02:08.261Z,6.18
2023-05-06T12:04:49.901Z,7.50
2023-05-06T12:07:16.785Z,7.05
2023-05-06T12:09:47.820Z,4.88
2023-05-06T12:12:22.509Z,4.45
2023-05-06T12:14:49.909Z,4.72
2023-05-06T12:17:16.740Z,4.97
2023-05-06T12:19:43.257Z,5.93
2023-05-06T12:22:24.451Z,4.97
2023-05-06T12:24:50.913Z,5.85
2023-05-06T12:27:30.497Z,5.10
2023-05-06T12:29:56.932Z,5.55
2023-05-06T12:32:23.438Z,5.45
2023-05-06T12:34:49.974Z,5.18
2023-05-06T12:37:30.340Z,4.00
2023-05-06T12:39:59.167Z,4.88
2023-05-06T12:42:34.325Z,4.25
2023-05-06T12:45:13.597Z,3.53
2023-05-06T12:47:40.221Z,6.60
2023-05-06T12:50:07.421Z,5.35
2023-05-06T12:52:33.900Z,3.50
2023-05-06T12:55:02.400Z,3.78
2023-05-06T12:57:28.910Z,4.10
2023-05-06T12:59:56.289Z,3.60
2023-05-06T13:02:23.031Z,6.28
2023-05-06T13:04:49.620Z,5.65
2023-05-06T13:07:16.286Z,5.05
2023-05-06T13:09:44.422Z,5.15
2023-05-06T13:12:10.993Z,3.85
2023-05-06T13:14:40.066Z,5.82
2023-05-06T13:17:07.533Z,4.68
2023-05-06T13:19:34.189Z,3.28
2023-05-06T13:22:01.480Z,3.70
2023-05-06T13:24:28.597Z,4.40
2023-05-06T13:26:56.881Z,4.70
2023-05-06T13:29:25.894Z,6.13
2023-05-06T13:31:52.522Z,5.68
2023-05-06T13:34:19.098Z,3.83
2023-05-06T13:36:46.674Z,4.47
2023-05-06T13:39:13.333Z,6.38
2023-05-06T13:41:39.719Z,5.10
2023-05-06T13:44:06.501Z,3.63
2023-05-06T13:46:33.044Z,5.10
2023-05-06T13:48:59.565Z,5.40
2023-05-06T13:51:32.605Z,5.70
2023-05-06T13:53:59.124Z,3.65
2023-05-06T13:56:25.728Z,3.70
2023-05-06T13:58:53.261Z,4.93
2023-05-06T14:01:23.558Z,3.35
2023-05-06T14:03:50.383Z,4.00
2023-05-06T14:06:17.195Z,2.28
2023-05-06T14:08:43.694Z,3.50
2023-05-06T14:11:10.216Z,2.97
2023-05-06T14:13:36.928Z,3.08
2023-05-06T14:16:03.592Z,4.55
2023-05-06T14:18:31.172Z,5.10
2023-05-06T14:20:57.697Z,5.30
2023-05-06T14:23:24.134Z,4.30
2023-05-06T14:25:50.677Z,4.88
2023-05-06T14:28:17.209Z,3.33
2023-05-06T14:30:44.348Z,6.72
2023-05-06T14:33:10.795Z,3.13
2023-05-06T14:35:41.907Z,5.60
2023-05-06T14:38:08.868Z,4.65
2023-05-06T14:40:36.981Z,3.50
2023-05-06T14:43:03.551Z,3.60
2023-05-06T14:45:30.168Z,3.30
2023-05-06T14:47:56.747Z,3.50
2023-05-06T14:50:23.276Z,3.70
2023-05-06T14:52:49.814Z,4.45
2023-05-06T14:55:16.680Z,2.17
2023-05-06T14:57:43.247Z,2.75
2023-05-06T15:00:10.310Z,4.55
2023-05-06T15:02:38.132Z,3.05
2023-05-06T15:05:05.125Z,3.95
2023-05-06T15:07:31.646Z,4.53
2023-05-06T15:09:58.064Z,2.50
2023-05-06T15:12:24.621Z,4.82
2023-05-06T15:14:51.190Z,4.30
2023-05-06T15:17:17.842Z,3.03
2023-05-06T15:19:44.261Z,4.10
2023-05-06T15:22:10.672Z,3.13
2023-05-06T15:24:37.444Z,4.13
2023-05-06T15:27:03.886Z,3.22
2023-05-06T15:29:30.394Z,3.75
2023-05-06T15:31:56.902Z,2.95
2023-05-06T15:34:24.499Z,5.03
2023-05-06T15:36:52.630Z,3.70
2023-05-06T15:39:19.524Z,3.60
2023-05-06T15:41:46.769Z,3.13
2023-05-06T15:46:42.430Z,2.88
2023-05-06T15:49:39.686Z,2.85
2023-05-06T15:51:59.061Z,2.50
2023-05-06T15:54:27.397Z,3.38
2023-05-06T15:56:53.861Z,3.47
2023-05-06T15:59:20.475Z,3.25
2023-05-06T16:04:16.510Z,4.10
2023-05-06T16:06:43.093Z,4.50
2023-05-06T16:09:10.348Z,6.57
2023-05-06T16:11:36.813Z,3.70
2023-05-06T16:14:03.949Z,5.88
2023-05-06T16:16:30.554Z,3.80
2023-05-06T16:18:57.085Z,2.50
2023-05-06T16:21:23.658Z,2.75
2023-05-06T16:23:50.125Z,3.65
2023-05-06T16:26:17.586Z,2.65
2023-05-06T16:28:44.109Z,4.03
2023-05-06T16:31:10.726Z,3.33
2023-05-06T16:33:37.318Z,3.45
2023-05-06T16:36:04.085Z,5.15
2023-05-06T16:38:30.652Z,3.08
2023-05-06T16:40:57.123Z,4.05
2023-05-06T16:43:23.560Z,3.70
2023-05-06T16:45:50.148Z,4.20
2023-05-06T16:48:16.758Z,3.72
2023-05-06T16:50:43.288Z,5.90
2023-05-06T16:53:10.027Z,4.50
2023-05-06T16:55:36.852Z,5.78
2023-05-06T16:58:04.059Z,48.85
2023-05-06T17:00:31.602Z,7.85
2023-05-06T17:02:58.410Z,5.38
2023-05-06T17:05:25.040Z,4.30
2023-05-06T17:07:51.472Z,4.82
2023-05-06T17:10:17.986Z,4.65
2023-05-06T17:12:44.832Z,5.25
2023-05-06T17:15:11.611Z,5.55
2023-05-06T17:17:40.312Z,3.38
2023-05-06T17:20:07.679Z,4.45
2023-05-06T17:22:34.258Z,3.65
2023-05-06T17:25:00.755Z,3.67
2023-05-06T17:27:27.221Z,5.35
2023-05-06T17:29:54.119Z,6.85
2023-05-06T17:32:20.782Z,6.35
2023-05-06T17:34:47.315Z,5.78
2023-05-06T17:37:13.868Z,6.07
2023-05-06T17:39:40.326Z,4.47
2023-05-06T17:42:06.950Z,4.72
2023-05-06T17:44:35.231Z,5.53
2023-05-06T17:47:01.894Z,6.82
2023-05-06T17:49:28.366Z,8.93
2023-05-06T17:51:55.994Z,6.38
2023-05-06T17:54:22.962Z,5.05
2023-05-06T17:56:52.652Z,4.53
2023-05-06T17:59:25.212Z,7.15
2023-05-06T18:01:52.291Z,5.80
2023-05-06T18:04:18.762Z,5.45
2023-05-06T18:06:46.309Z,6.20
2023-05-06T18:09:12.983Z,6.13
2023-05-06T18:11:40.368Z,4.50
2023-05-06T18:14:06.924Z,5.22
2023-05-06T18:16:33.489Z,6.82
2023-05-06T18:19:02.554Z,5.53
2023-05-06T18:21:29.102Z,5.93
2023-05-06T18:24:01.902Z,5.80
2023-05-06T18:26:44.025Z,5.25
2023-05-06T18:29:12.312Z,6.15
2023-05-06T18:31:38.904Z,5.10
2023-05-06T18:34:05.478Z,4.90
2023-05-06T18:36:32.148Z,5.55
2023-05-06T18:38:58.669Z,6.45
2023-05-06T18:41:25.231Z,7.35
2023-05-06T18:43:51.771Z,5.63
2023-05-06T18:46:18.361Z,5.78
2023-05-06T18:48:45.227Z,5.55
2023-05-06T18:51:13.432Z,5.60
2023-05-06T18:53:40.761Z,6.88
2023-05-06T18:56:08.086Z,6.85
2023-05-06T18:58:36.928Z,7.50
2023-05-06T19:01:07.561Z,6.32
2023-05-06T19:06:02.737Z,9.05
2023-05-06T19:08:29.808Z,8.73
2023-05-06T19:10:58.154Z,7.97
2023-05-06T19:13:24.648Z,7.80
2023-05-06T19:15:51.133Z,7.15
2023-05-06T19:18:17.913Z,7.85
2023-05-06T19:20:44.570Z,7.97
2023-05-06T19:23:11.090Z,8.00
2023-05-06T19:25:38.602Z,8.15
2023-05-06T19:28:05.831Z,9.27
2023-05-06T19:30:33.743Z,10.95
2023-05-06T19:33:01.698Z,10.32
2023-05-06T19:35:28.229Z,9.38
2023-05-06T19:37:54.664Z,10.35
2023-05-06T19:40:21.984Z,9.30
2023-05-06T19:42:48.451Z,9.15
2023-05-06T19:45:16.757Z,9.73
2023-05-06T19:47:45.691Z,9.77
2023-05-06T19:50:12.938Z,10.43
2023-05-06T19:52:39.954Z,10.18
2023-05-06T19:55:07.030Z,10.48
2023-05-06T19:57:33.870Z,10.57
2023-05-06T20:00:05.062Z,12.02
2023-05-06T20:02:32.491Z,10.60
2023-05-06T20:05:00.338Z,13.90
2023-05-06T20:07:27.110Z,11.82
2023-05-06T20:09:55.453Z,10.88
2023-05-06T20:12:28.200Z,12.00
2023-05-06T20:14:54.908Z,13.07
2023-05-06T20:17:22.183Z,13.02
2023-05-06T20:19:49.659Z,14.93
2023-05-06T20:22:16.193Z,14.25
2023-05-06T20:24:43.524Z,11.27
2023-05-06T20:27:10.073Z,14.18
2023-05-06T20:29:36.630Z,12.68
2023-05-06T20:32:03.424Z,11.73
2023-05-06T20:34:30.020Z,15.73
2023-05-06T20:36:56.619Z,17.83
2023-05-06T20:39:23.704Z,14.30
2023-05-06T20:41:50.215Z,16.38
2023-05-06T20:44:16.735Z,12.25
2023-05-06T20:46:44.035Z,13.25
2023-05-06T20:49:10.462Z,12.50
2023-05-06T20:51:36.934Z,15.18
2023-05-06T20:54:03.950Z,15.82
2023-05-06T20:56:30.486Z,13.60
2023-05-06T20:58:56.916Z,15.40
2023-05-06T21:01:24.067Z,17.10
2023-05-06T21:03:50.750Z,15.10
2023-05-06T21:06:17.821Z,11.68
2023-05-06T21:08:44.906Z,17.55
2023-05-06T21:11:11.570Z,16.05
2023-05-06T21:13:38.817Z,13.32
2023-05-06T21:16:05.840Z,14.35
2023-05-06T21:18:32.528Z,15.80
2023-05-06T21:20:59.685Z,14.82
2023-05-06T21:23:26.506Z,17.02
2023-05-06T21:25:52.996Z,15.43
2023-05-06T21:28:19.554Z,20.05
2023-05-06T21:30:46.170Z,16.67
2023-05-06T21:33:12.748Z,17.75
2023-05-06T21:35:39.256Z,14.75
2023-05-06T21:38:05.884Z,14.07
2023-05-06T21:40:32.457Z,17.58
2023-05-06T21:42:58.904Z,14.98
2023-05-06T21:45:25.331Z,15.68
2023-05-06T21:47:51.818Z,16.23
2023-05-06T21:50:18.347Z,15.75
2023-05-06T21:52:44.809Z,16.88
2023-05-06T21:55:11.749Z,17.13
2023-05-06T21:57:38.902Z,15.77
2023-05-06T22:00:11.758Z,16.25
2023-05-06T22:02:39.691Z,17.85
2023-05-06T22:05:07.753Z,18.55
2023-05-06T22:07:34.570Z,18.63
2023-05-06T22:10:01.156Z,17.10
2023-05-06T22:12:27.735Z,14.88
2023-05-06T22:14:54.276Z,16.92
2023-05-06T22:17:21.483Z,13.00
2023-05-06T22:19:47.967Z,18.80
2023-05-06T22:22:14.890Z,16.75
2023-05-06T22:24:41.370Z,14.98
2023-05-06T22:27:07.889Z,14.90
2023-05-06T22:29:37.206Z,14.23
2023-05-06T22:32:03.878Z,12.48
2023-05-06T22:34:30.474Z,13.68
2023-05-06T22:36:58.400Z,14.32
2023-05-06T22:39:27.246Z,15.32
2023-05-06T22:41:53.721Z,14.63
2023-05-06T22:44:20.977Z,14.73
2023-05-06T22:46:47.497Z,17.83
2023-05-06T22:49:14.473Z,13.35
2023-05-06T22:51:41.241Z,15.05
2023-05-06T22:54:07.843Z,16.20
2023-05-06T22:56:34.276Z,13.87
2023-05-06T22:59:00.796Z,13.10
2023-05-06T23:01:32.009Z,14.88
2023-05-06T23:03:59.568Z,11.88
2023-05-06T23:06:27.656Z,13.23
2023-05-06T23:08:54.123Z,13.75
2023-05-06T23:11:20.681Z,13.25
2023-05-06T23:13:47.312Z,12.45
2023-05-06T23:16:14.710Z,14.43
2023-05-06T23:18:41.485Z,12.75
2023-05-06T23:21:08.091Z,13.23
2023-05-06T23:23:34.822Z,14.07
2023-05-06T23:26:01.300Z,11.75
2023-05-06T23:28:27.930Z,15.10
2023-05-06T23:30:54.551Z,14.20
2023-05-06T23:33:21.212Z,13.80
2023-05-06T23:35:47.692Z,13.88
2023-05-06T23:38:14.139Z,13.75
2023-05-06T23:40:40.717Z,13.02
2023-05-06T23:43:09.704Z,12.18
2023-05-06T23:45:36.228Z,12.77
2023-05-06T23:48:03.243Z,13.10
2023-05-06T23:50:29.733Z,9.75
2023-05-06T23:52:56.383Z,12.10
2023-05-06T23:55:22.960Z,12.23
2023-05-06T23:57:49.463Z,13.15
